createdAt,value
2024-03-16T00:02:21.144Z,11.25
2024-03-16T00:04:47.632Z,11.25
2024-03-16T00:07:14.587Z,11.22
2024-03-16T00:09:41.375Z,11.22
2024-03-16T00:12:08.174Z,11.18
2024-03-16T00:14:34.863Z,11.04
2024-03-16T00:17:02.329Z,10.99
2024-03-16T00:19:29.043Z,10.88
2024-03-16T00:21:55.611Z,10.93
2024-03-16T00:24:22.113Z,10.85
2024-03-16T00:26:49.131Z,10.83
2024-03-16T00:29:16.458Z,10.87
2024-03-16T00:31:45.010Z,10.80
2024-03-16T00:34:11.912Z,10.74
2024-03-16T00:36:38.767Z,10.72
2024-03-16T00:39:16.331Z,10.71
2024-03-16T00:41:43.928Z,10.65
2024-03-16T00:44:10.922Z,10.68
2024-03-16T00:46:37.929Z,10.74
2024-03-16T00:49:04.875Z,10.72
2024-03-16T00:51:31.797Z,10.67
2024-03-16T00:53:58.454Z,10.65
2024-03-16T00:56:25.441Z,10.62
2024-03-16T00:58:52.000Z,10.62
2024-03-16T01:01:18.682Z,10.67
2024-03-16T01:03:45.334Z,10.64
2024-03-16T01:06:12.701Z,10.63
2024-03-16T01:08:39.363Z,10.49
2024-03-16T01:11:07.150Z,10.49
2024-03-16T01:13:33.840Z,10.46
2024-03-16T01:16:00.553Z,10.46
2024-03-16T01:18:27.254Z,10.52
2024-03-16T01:20:53.934Z,10.50
2024-03-16T01:23:20.827Z,10.45
2024-03-16T01:25:48.236Z,10.44
2024-03-16T01:28:14.896Z,10.39
2024-03-16T01:30:41.611Z,10.46
2024-03-16T01:33:08.212Z,10.40
2024-03-16T01:35:34.865Z,10.34
2024-03-16T01:38:01.435Z,10.29
2024-03-16T01:40:28.063Z,10.40
2024-03-16T01:42:54.951Z,10.38
2024-03-16T01:45:21.806Z,10.33
2024-03-16T01:47:53.869Z,10.32
2024-03-16T01:50:20.647Z,10.40
2024-03-16T01:52:47.962Z,10.38
2024-03-16T01:55:16.400Z,10.39
2024-03-16T01:57:43.088Z,10.30
2024-03-16T02:00:13.356Z,10.32
2024-03-16T02:02:40.657Z,10.31
2024-03-16T02:05:08.986Z,10.26
2024-03-16T02:07:40.403Z,10.29
2024-03-16T02:10:11.317Z,10.43
2024-03-16T02:12:38.172Z,10.42
2024-03-16T02:15:05.527Z,10.36
2024-03-16T02:17:32.244Z,10.31
2024-03-16T02:19:58.881Z,10.38
2024-03-16T02:22:25.789Z,10.43
2024-03-16T02:24:52.575Z,10.42
2024-03-16T02:27:21.132Z,10.65
2024-03-16T02:29:48.075Z,10.52
2024-03-16T02:34:52.562Z,10.44
2024-03-16T02:37:20.242Z,10.48
2024-03-16T02:39:47.039Z,10.37
2024-03-16T02:42:13.689Z,10.44
2024-03-16T02:44:42.180Z,10.25
2024-03-16T02:47:11.359Z,10.27
2024-03-16T02:49:37.989Z,10.30
2024-03-16T02:52:07.695Z,10.31
2024-03-16T02:54:34.592Z,10.30
2024-03-16T02:57:01.124Z,10.22
2024-03-16T02:59:30.941Z,10.02
2024-03-16T03:01:58.746Z,10.04
2024-03-16T03:04:25.415Z,10.00
2024-03-16T03:06:52.051Z,10.02
2024-03-16T03:09:19.266Z,10.02
2024-03-16T03:11:46.554Z,9.99
2024-03-16T03:14:16.263Z,10.00
2024-03-16T03:16:42.848Z,10.00
2024-03-16T03:19:10.161Z,9.93
2024-03-16T03:21:36.914Z,9.72
2024-03-16T03:24:04.475Z,9.91
2024-03-16T03:26:31.694Z,9.79
2024-03-16T03:28:58.683Z,9.92
2024-03-16T03:31:25.468Z,9.77
2024-03-16T03:33:52.205Z,9.64
2024-03-16T03:36:19.305Z,9.83
2024-03-16T03:38:45.843Z,9.58
2024-03-16T03:41:12.407Z,9.68
2024-03-16T03:43:39.016Z,9.64
2024-03-16T03:46:06.263Z,9.66
2024-03-16T03:48:37.639Z,9.73
2024-03-16T03:51:05.005Z,9.60
2024-03-16T03:53:31.971Z,9.62
2024-03-16T03:56:01.098Z,9.64
2024-03-16T03:58:28.655Z,9.50
2024-03-16T04:00:55.301Z,9.52
2024-03-16T04:03:21.934Z,9.58
2024-03-16T04:05:53.001Z,9.55
2024-03-16T04:08:19.673Z,9.53
2024-03-16T04:10:46.289Z,9.44
2024-03-16T04:13:13.896Z,9.39
2024-03-16T04:15:40.603Z,9.43
2024-03-16T04:18:07.343Z,9.46
2024-03-16T04:20:33.897Z,9.26
2024-03-16T04:23:02.561Z,9.10
2024-03-16T04:25:29.327Z,9.18
2024-03-16T04:27:56.120Z,9.12
2024-03-16T04:30:22.691Z,9.13
2024-03-16T04:32:49.330Z,9.20
2024-03-16T04:35:16.009Z,9.11
2024-03-16T04:37:42.484Z,9.21
2024-03-16T04:40:09.633Z,9.20
2024-03-16T04:42:36.305Z,9.20
2024-03-16T04:45:02.956Z,9.29
2024-03-16T04:47:29.547Z,9.10
2024-03-16T04:49:56.095Z,9.11
2024-03-16T04:52:22.635Z,9.23
2024-03-16T04:54:49.266Z,9.10
2024-03-16T04:57:15.852Z,9.06
2024-03-16T04:59:42.362Z,9.17
2024-03-16T05:02:09.005Z,9.13
2024-03-16T05:04:35.755Z,9.15
2024-03-16T05:07:02.574Z,9.13
2024-03-16T05:09:29.918Z,9.20
2024-03-16T05:11:56.731Z,8.98
2024-03-16T05:14:23.414Z,9.25
2024-03-16T05:16:49.967Z,9.05
2024-03-16T05:19:16.561Z,9.01
2024-03-16T05:21:43.602Z,9.17
2024-03-16T05:24:10.365Z,9.14
2024-03-16T05:26:37.956Z,8.85
2024-03-16T05:29:04.688Z,9.05
2024-03-16T05:31:33.218Z,8.94
2024-03-16T05:34:00.298Z,9.00
2024-03-16T05:36:27.115Z,8.97
2024-03-16T05:38:55.326Z,8.89
2024-03-16T05:41:21.875Z,8.93
2024-03-16T05:43:48.553Z,8.93
2024-03-16T05:46:15.150Z,8.91
2024-03-16T05:48:42.012Z,9.00
2024-03-16T05:51:08.658Z,8.87
2024-03-16T05:53:35.290Z,8.67
2024-03-16T05:56:01.856Z,8.80
2024-03-16T05:58:29.918Z,8.73
2024-03-16T06:00:57.722Z,8.58
2024-03-16T06:03:27.182Z,8.59
2024-03-16T06:05:53.880Z,8.87
2024-03-16T06:08:20.628Z,8.74
2024-03-16T06:10:51.761Z,8.77
2024-03-16T06:13:18.412Z,8.64
2024-03-16T06:15:45.047Z,8.55
2024-03-16T06:18:11.599Z,8.59
2024-03-16T06:20:38.546Z,8.68
2024-03-16T06:23:11.273Z,8.82
2024-03-16T06:25:48.070Z,8.84
2024-03-16T06:28:18.146Z,8.88
2024-03-16T06:30:53.420Z,8.89
2024-03-16T06:33:31.972Z,8.78
2024-03-16T06:35:58.789Z,8.82
2024-03-16T06:38:25.590Z,8.67
2024-03-16T06:40:52.157Z,8.77
2024-03-16T06:43:18.819Z,8.69
2024-03-16T06:45:45.551Z,8.45
2024-03-16T06:48:12.530Z,8.38
2024-03-16T06:50:39.138Z,8.59
2024-03-16T06:53:07.567Z,8.44
2024-03-16T06:55:34.197Z,8.48
2024-03-16T06:58:00.858Z,8.43
2024-03-16T07:00:27.679Z,8.62
2024-03-16T07:02:54.381Z,8.66
2024-03-16T07:05:20.915Z,8.77
2024-03-16T07:07:47.434Z,8.79
2024-03-16T07:10:16.082Z,8.83
2024-03-16T07:12:42.807Z,8.91
2024-03-16T07:15:09.480Z,9.04
2024-03-16T07:17:36.139Z,8.80
2024-03-16T07:20:03.798Z,8.96
2024-03-16T07:22:30.453Z,8.87
2024-03-16T07:24:56.992Z,8.85
2024-03-16T07:27:23.548Z,8.81
2024-03-16T07:29:50.133Z,8.87
2024-03-16T07:32:16.748Z,8.96
2024-03-16T07:34:43.326Z,9.07
2024-03-16T07:37:09.995Z,9.15
2024-03-16T07:39:36.546Z,9.00
2024-03-16T07:42:03.294Z,9.09
2024-03-16T07:44:31.291Z,9.13
2024-03-16T07:46:57.942Z,8.91
2024-03-16T07:49:24.584Z,9.04
2024-03-16T07:51:51.189Z,9.28
2024-03-16T07:54:17.887Z,9.18
2024-03-16T07:56:44.921Z,9.28
2024-03-16T07:59:12.284Z,9.39
2024-03-16T08:01:38.880Z,9.60
2024-03-16T08:04:05.640Z,9.61
2024-03-16T08:06:32.719Z,9.37
2024-03-16T08:08:59.701Z,9.43
2024-03-16T08:11:28.884Z,9.43
2024-03-16T08:13:55.480Z,9.47
2024-03-16T08:16:22.315Z,9.38
2024-03-16T08:18:49.264Z,9.55
2024-03-16T08:21:17.429Z,9.60
2024-03-16T08:23:46.899Z,9.58
2024-03-16T08:26:14.227Z,9.73
2024-03-16T08:28:41.013Z,9.85
2024-03-16T08:31:07.711Z,9.96
2024-03-16T08:33:34.453Z,10.06
2024-03-16T08:36:01.104Z,9.94
2024-03-16T08:38:28.088Z,9.76
2024-03-16T08:40:56.880Z,9.82
2024-03-16T08:43:23.755Z,9.76
2024-03-16T08:45:50.448Z,9.70
2024-03-16T08:48:17.209Z,9.52
2024-03-16T08:50:43.786Z,9.15
2024-03-16T08:53:10.336Z,9.37
2024-03-16T08:55:37.188Z,9.39
2024-03-16T08:58:04.902Z,9.40
2024-03-16T09:00:31.816Z,9.32
2024-03-16T09:02:58.683Z,9.37
2024-03-16T09:05:26.877Z,9.38
2024-03-16T09:07:53.485Z,9.16
2024-03-16T09:10:21.433Z,9.37
2024-03-16T09:12:48.496Z,9.20
2024-03-16T09:15:17.024Z,9.08
2024-03-16T09:17:43.648Z,9.40
2024-03-16T09:20:11.757Z,9.53
2024-03-16T09:22:38.938Z,9.55
2024-03-16T09:25:10.094Z,9.61
2024-03-16T09:27:37.114Z,9.65
2024-03-16T09:30:09.734Z,9.59
2024-03-16T09:32:37.902Z,9.80
2024-03-16T09:35:08.680Z,9.60
2024-03-16T09:37:35.264Z,9.69
2024-03-16T09:40:02.233Z,9.65
2024-03-16T09:42:29.858Z,9.81
